Time;durP1;ratioP1;P1;durP2;ratioP2;P2;SDS_P1;SDS_P2;PMS_P1;PMS_P2;Temp;Humidity;BMP_temperature;BMP_pressure;BME280_temperature;BME280_humidity;BME280_pressure;Samples;Min_cycle;Max_cycle;Signal;HPM_P1;HPM_P2
2024/03/03 00:00:25;;;;;;;56.28;41.28;;;;;;;8.31;77.19;94281.59;4218152;28;20139;-71
2024/03/03 00:02:27;;;;;;;59.60;41.45;;;;;;;8.36;77.28;94291.56;4240362;27;20463;-69
2024/03/03 00:04:29;;;;;;;54.10;39.55;;;;;;;8.44;76.91;94296.84;4244003;27;20083;-70
2024/03/03 00:06:32;;;;;;;56.78;40.42;;;;;;;8.48;76.58;94282.53;4215974;28;20111;-68
2024/03/03 00:08:33;;;;;;;54.90;39.07;;;;;;;8.53;76.59;94279.44;4241950;27;20057;-70
2024/03/03 00:10:35;;;;;;;55.50;39.65;;;;;;;8.55;75.95;94280.91;4243543;27;20057;-71
2024/03/03 00:12:38;;;;;;;55.10;40.33;;;;;;;8.59;76.20;94281.44;4238823;27;20051;-71
2024/03/03 00:14:39;;;;;;;49.72;38.80;;;;;;;8.63;75.92;94280.13;4241393;27;20051;-68
2024/03/03 00:16:42;;;;;;;58.78;38.53;;;;;;;8.68;75.73;94274.44;4244574;27;20050;-70
2024/03/03 00:18:44;;;;;;;54.25;39.00;;;;;;;8.70;74.95;94277.72;4239678;27;20164;-69
2024/03/03 00:20:45;;;;;;;53.45;39.38;;;;;;;8.72;75.45;94279.19;4243700;27;20093;-69
2024/03/03 00:22:48;;;;;;;50.30;37.70;;;;;;;8.77;74.91;94270.88;4225161;28;20112;-71
2024/03/03 00:24:50;;;;;;;53.03;38.70;;;;;;;8.77;74.96;94268.25;4232280;27;20051;-69
2024/03/03 00:26:52;;;;;;;51.92;37.78;;;;;;;8.80;74.25;94266.16;4238197;27;20048;-69
2024/03/03 00:28:54;;;;;;;51.63;38.35;;;;;;;8.82;74.69;94266.00;4244049;27;20101;-71
2024/03/03 00:30:56;;;;;;;54.70;39.35;;;;;;;8.84;74.88;94264.06;4225739;28;20053;-70
2024/03/03 00:32:58;;;;;;;50.33;36.95;;;;;;;8.80;73.90;94266.16;4244168;27;20039;-70
2024/03/03 00:35:00;;;;;;;44.80;33.17;;;;;;;8.75;73.67;94257.16;4244409;27;20445;-68
2024/03/03 00:37:02;;;;;;;41.08;32.33;;;;;;;8.72;74.46;94258.28;4243753;27;20588;-72
2024/03/03 00:39:04;;;;;;;41.70;28.90;;;;;;;8.74;74.27;94261.56;4244078;27;20112;-69
2024/03/03 00:41:06;;;;;;;40.83;29.98;;;;;;;8.74;73.89;94253.72;4236973;27;20079;-68
2024/03/03 00:43:08;;;;;;;40.90;29.77;;;;;;;8.75;74.33;94259.75;4243820;27;20103;-70
2024/03/03 00:45:11;;;;;;;42.90;31.45;;;;;;;8.77;75.07;94260.44;4201912;28;20153;-71
2024/03/03 00:47:13;;;;;;;48.80;35.03;;;;;;;8.74;73.89;94261.56;4244619;27;20478;-70
2024/03/03 00:49:15;;;;;;;48.97;35.30;;;;;;;8.53;74.26;94258.56;4238665;27;20043;-69
2024/03/03 00:51:17;;;;;;;52.15;35.90;;;;;;;8.49;74.92;94262.44;4238418;27;20070;-70
2024/03/03 00:53:20;;;;;;;51.42;38.00;;;;;;;8.50;74.97;94253.66;4223091;28;20056;-71
2024/03/03 00:55:23;;;;;;;55.53;39.97;;;;;;;8.51;75.34;94248.25;4242429;27;20687;-69
2024/03/03 00:57:25;;;;;;;56.40;40.45;;;;;;;8.49;74.37;94254.63;4240861;27;20050;-69
2024/03/03 00:59:27;;;;;;;50.20;36.90;;;;;;;8.39;74.17;94252.94;4239715;27;20055;-70
2024/03/03 01:01:30;;;;;;;48.80;37.03;;;;;;;8.32;74.57;94251.09;4241499;27;20471;-69
2024/03/03 01:03:32;;;;;;;53.40;38.17;;;;;;;7.93;75.59;94257.56;4218640;28;20040;-71
2024/03/03 01:05:33;;;;;;;51.92;38.60;;;;;;;7.44;77.88;94251.19;4236567;27;20209;-69
2024/03/03 01:07:36;;;;;;;48.45;35.53;;;;;;;7.04;79.58;94255.09;4238217;27;20053;-68
2024/03/03 01:09:41;;;;;;;56.47;38.92;;;;;;;6.92;80.80;94250.06;4234899;27;20478;-71
2024/03/03 01:11:43;;;;;;;49.55;37.38;;;;;;;7.00;81.20;94254.56;4234035;27;20059;-70
2024/03/03 01:13:45;;;;;;;50.50;36.00;;;;;;;7.12;81.18;94247.31;4240764;27;20101;-69
2024/03/03 01:15:47;;;;;;;56.30;39.50;;;;;;;7.39;81.26;94251.63;4240497;27;20134;-68
2024/03/03 01:17:49;;;;;;;60.15;42.35;;;;;;;7.63;80.52;94244.97;4238860;27;20086;-69
2024/03/03 01:19:51;;;;;;;54.75;40.42;;;;;;;7.82;79.78;94249.19;4236589;27;20054;-69
2024/03/03 01:21:53;;;;;;;48.88;37.15;;;;;;;7.99;78.74;94251.72;4221562;28;20135;-70
2024/03/03 01:23:56;;;;;;;51.60;38.65;;;;;;;8.14;77.47;94246.75;4238696;27;20413;-68
2024/03/03 01:25:58;;;;;;;55.10;38.35;;;;;;;8.22;76.95;94240.78;4242230;27;20062;-71
2024/03/03 01:27:59;;;;;;;52.92;36.22;;;;;;;8.31;76.30;94236.41;4242337;27;20062;-71
2024/03/03 01:30:03;;;;;;;51.33;36.55;;;;;;;8.39;75.82;94239.88;4243556;27;20676;-69
2024/03/03 01:32:08;;;;;;;44.38;35.22;;;;;;;8.46;75.14;94236.66;4243587;27;20413;-68
2024/03/03 01:34:10;;;;;;;48.78;34.42;;;;;;;8.51;75.03;94235.22;4241981;27;20055;-71
2024/03/03 01:36:13;;;;;;;44.97;32.88;;;;;;;8.51;74.22;94237.81;4243323;27;20542;-70
2024/03/03 01:38:15;;;;;;;47.05;32.83;;;;;;;8.56;74.44;94234.72;4240565;27;20039;-70
2024/03/03 01:40:17;;;;;;;45.60;32.58;;;;;;;8.57;73.53;94231.16;4242662;27;20039;-68
2024/03/03 01:42:19;;;;;;;39.15;29.73;;;;;;;8.61;73.63;94240.31;4242983;27;20116;-69
2024/03/03 01:44:21;;;;;;;40.05;29.48;;;;;;;8.65;73.35;94236.41;4237519;27;20120;-67
2024/03/03 01:46:24;;;;;;;40.55;29.50;;;;;;;8.66;73.34;94232.81;4217329;28;20162;-69
2024/03/03 01:48:25;;;;;;;41.53;29.60;;;;;;;8.66;73.17;94239.84;4224261;28;20073;-69
2024/03/03 01:50:28;;;;;;;41.50;28.20;;;;;;;8.63;72.53;94233.13;4221849;28;20058;-69
2024/03/03 01:52:29;;;;;;;40.55;28.05;;;;;;;8.69;72.41;94236.88;4235503;27;20361;-69
2024/03/03 01:54:32;;;;;;;41.33;28.30;;;;;;;8.69;72.07;94239.50;4227415;27;20088;-70
2024/03/03 01:56:35;;;;;;;38.23;26.40;;;;;;;8.70;72.32;94234.13;4233910;28;20475;-69
2024/03/03 01:58:39;;;;;;;39.47;27.75;;;;;;;8.71;71.50;94240.16;4215748;28;20732;-70
2024/03/03 02:00:40;;;;;;;34.92;27.40;;;;;;;8.73;72.28;94238.22;4222394;28;20488;-69
2024/03/03 02:02:44;;;;;;;34.88;26.35;;;;;;;8.71;71.97;94238.38;4242672;28;20043;-70
2024/03/03 02:04:46;;;;;;;37.10;27.13;;;;;;;8.69;71.92;94231.66;4232999;28;20096;-71
2024/03/03 02:06:50;;;;;;;37.00;28.02;;;;;;;8.65;71.48;94236.41;4222721;28;20083;-67
2024/03/03 02:08:52;;;;;;;39.47;27.08;;;;;;;8.60;72.05;94233.44;4215399;28;20067;-68
2024/03/03 02:10:54;;;;;;;39.72;27.38;;;;;;;8.55;71.51;94236.53;4240260;28;20501;-70
2024/03/03 02:12:56;;;;;;;35.55;27.38;;;;;;;8.54;72.33;94239.28;4205239;28;20044;-71
2024/03/03 02:14:58;;;;;;;38.13;26.77;;;;;;;8.52;71.92;94241.25;4241605;28;20047;-72
2024/03/03 02:17:01;;;;;;;36.70;27.48;;;;;;;8.50;72.30;94238.00;4242073;28;20051;-70
2024/03/03 02:19:02;;;;;;;36.80;26.00;;;;;;;8.49;71.86;94242.38;4232394;28;20129;-70
2024/03/03 02:21:04;;;;;;;35.15;26.55;;;;;;;8.45;72.04;94241.06;4232833;28;20146;-70
2024/03/03 02:23:06;;;;;;;35.10;25.88;;;;;;;8.45;72.39;94238.44;4239880;28;20051;-69
2024/03/03 02:25:09;;;;;;;38.05;25.85;;;;;;;8.47;72.26;94238.28;4240304;28;20375;-69
2024/03/03 02:27:11;;;;;;;32.83;25.13;;;;;;;8.42;71.62;94238.75;4239624;28;20074;-70
2024/03/03 02:29:13;;;;;;;30.58;23.08;;;;;;;8.39;71.83;94239.88;4219186;28;20584;-69
2024/03/03 02:31:15;;;;;;;36.90;24.85;;;;;;;8.37;71.39;94238.41;4222216;28;20408;-70
2024/03/03 02:33:17;;;;;;;30.20;21.25;;;;;;;8.33;71.44;94242.28;4217418;28;20047;-69
2024/03/03 02:35:19;;;;;;;27.67;20.73;;;;;;;8.30;71.51;94242.59;4240861;27;20043;-70
2024/03/03 02:37:21;;;;;;;33.72;22.67;;;;;;;8.31;71.30;94239.84;4239677;27;20047;-69
2024/03/03 02:39:23;;;;;;;32.30;23.58;;;;;;;8.30;71.33;94242.59;4222988;28;20052;-69
2024/03/03 02:41:25;;;;;;;32.42;22.83;;;;;;;8.32;71.18;94245.88;4222165;28;20094;-69
2024/03/03 02:43:27;;;;;;;28.08;21.30;;;;;;;8.31;70.56;94247.66;4244269;27;20051;-70
2024/03/03 02:45:29;;;;;;;31.83;23.05;;;;;;;8.23;71.70;94246.81;4237139;27;20047;-68
2024/03/03 02:47:31;;;;;;;36.40;22.98;;;;;;;8.15;71.61;94235.38;4240191;27;20514;-67
2024/03/03 02:49:33;;;;;;;35.72;22.10;;;;;;;8.05;71.08;94239.88;4246306;27;20050;-69
2024/03/03 02:51:35;;;;;;;27.60;20.50;;;;;;;7.86;70.99;94250.53;4238002;27;20069;-70
2024/03/03 02:53:37;;;;;;;29.52;19.88;;;;;;;7.42;72.34;94247.91;4227742;28;20478;-69
2024/03/03 02:55:39;;;;;;;33.47;20.70;;;;;;;7.17;73.39;94256.34;4227407;28;20055;-68
2024/03/03 02:57:41;;;;;;;29.95;20.55;;;;;;;6.83;73.88;94255.34;4243692;27;20426;-70
2024/03/03 02:59:44;;;;;;;27.73;20.30;;;;;;;6.60;74.63;94250.53;4226939;28;20047;-68
2024/03/03 03:01:46;;;;;;;32.28;20.23;;;;;;;6.52;75.10;94260.88;4241336;27;20047;-71
2024/03/03 03:03:47;;;;;;;27.95;19.48;;;;;;;6.30;75.66;94267.25;4244756;27;20519;-70
2024/03/03 03:05:49;;;;;;;28.38;20.02;;;;;;;6.42;76.37;94254.91;4236853;27;20047;-69
2024/03/03 03:07:51;;;;;;;26.77;19.25;;;;;;;6.46;75.93;94262.28;4244530;27;20091;-69
2024/03/03 03:09:53;;;;;;;30.98;20.23;;;;;;;6.16;76.45;94260.75;4243460;27;20560;-70
2024/03/03 03:11:55;;;;;;;28.88;19.90;;;;;;;6.02;77.54;94263.81;4244053;27;20067;-68
2024/03/03 03:13:57;;;;;;;28.67;20.48;;;;;;;6.13;77.92;94266.22;4241872;27;20444;-69
2024/03/03 03:16:03;;;;;;;32.63;21.50;;;;;;;6.36;77.82;94261.50;4244209;27;20126;-69
2024/03/03 03:18:05;;;;;;;33.05;21.52;;;;;;;6.58;76.78;94262.88;4219488;28;20116;-69
2024/03/03 03:20:08;;;;;;;37.13;25.00;;;;;;;6.35;76.67;94260.69;4226747;27;20419;-70
2024/03/03 03:22:09;;;;;;;56.55;34.05;;;;;;;6.24;79.18;94267.84;4237295;27;20057;-70
2024/03/03 03:24:11;;;;;;;58.00;33.67;;;;;;;5.90;81.15;94276.97;4238368;27;20051;-68
2024/03/03 03:26:13;;;;;;;58.08;36.10;;;;;;;5.96;81.51;94270.41;4245812;27;20126;-69
2024/03/03 03:28:15;;;;;;;71.95;41.10;;;;;;;6.03;82.57;94271.47;4242694;27;20054;-70
2024/03/03 03:30:17;;;;;;;67.15;38.65;;;;;;;6.11;82.32;94274.19;4241372;27;20051;-71
2024/03/03 03:32:19;;;;;;;66.82;39.42;;;;;;;6.12;82.56;94270.63;4244749;27;20046;-71
2024/03/03 03:34:21;;;;;;;71.13;40.38;;;;;;;6.20;83.05;94272.53;4245442;27;20065;-70
2024/03/03 03:36:22;;;;;;;72.22;41.88;;;;;;;6.34;82.81;94272.03;4224445;28;20077;-71
2024/03/03 03:38:24;;;;;;;64.28;37.58;;;;;;;6.50;82.45;94274.03;4231094;27;20078;-69
2024/03/03 03:40:28;;;;;;;61.88;35.53;;;;;;;6.63;82.06;94280.69;4244340;27;20533;-70
2024/03/03 03:42:30;;;;;;;55.22;34.22;;;;;;;6.72;81.31;94270.22;4244697;27;20047;-69
2024/03/03 03:44:32;;;;;;;56.97;34.50;;;;;;;6.80;81.04;94279.91;4237734;27;20103;-68
2024/03/03 03:46:34;;;;;;;55.47;33.65;;;;;;;6.88;80.18;94282.59;4245047;27;20069;-70
2024/03/03 03:48:36;;;;;;;54.58;33.65;;;;;;;6.93;80.11;94279.56;4243901;27;20127;-69
2024/03/03 03:50:37;;;;;;;52.38;32.00;;;;;;;6.98;79.97;94287.72;4242930;27;20425;-70
2024/03/03 03:52:39;;;;;;;53.15;32.72;;;;;;;6.91;79.69;94287.50;4226180;28;20048;-69
2024/03/03 03:54:41;;;;;;;50.38;32.25;;;;;;;6.94;80.03;94284.59;4243181;27;20133;-71
2024/03/03 03:56:43;;;;;;;55.53;32.67;;;;;;;7.05;80.33;94282.75;4242678;27;20047;-71
2024/03/03 03:58:45;;;;;;;49.50;29.48;;;;;;;7.15;79.71;94278.31;4210020;28;20105;-70
2024/03/03 04:00:47;;;;;;;49.28;30.10;;;;;;;7.24;79.33;94280.00;4225263;28;20067;-70
2024/03/03 04:02:48;;;;;;;53.38;30.98;;;;;;;7.20;78.58;94283.88;4239010;27;20154;-68
2024/03/03 04:04:50;;;;;;;91.97;33.30;;;;;;;6.79;79.73;94278.25;4242344;27;20447;-71
2024/03/03 04:06:52;;;;;;;82.95;35.72;;;;;;;6.60;80.43;94284.38;4245054;27;20054;-71
2024/03/03 04:08:55;;;;;;;57.17;34.60;;;;;;;6.43;81.70;94285.16;4242997;27;20043;-69
2024/03/03 04:10:58;;;;;;;59.67;34.97;;;;;;;6.59;82.27;94287.16;4228550;27;20155;-69
2024/03/03 04:13:01;;;;;;;60.95;35.35;;;;;;;6.78;82.40;94279.22;4204665;28;20585;-72
2024/03/03 04:15:04;;;;;;;54.60;33.25;;;;;;;6.72;81.10;94282.41;4244575;27;20047;-71
2024/03/03 04:17:06;;;;;;;59.72;32.47;;;;;;;6.67;81.81;94285.47;4233931;27;20065;-69
2024/03/03 04:19:08;;;;;;;63.97;34.80;;;;;;;6.63;81.51;94283.28;4232836;27;20051;-69
2024/03/03 04:21:10;;;;;;;57.03;32.47;;;;;;;6.74;82.12;94283.91;4239929;27;20067;-69
2024/03/03 04:23:12;;;;;;;63.72;36.00;;;;;;;6.88;81.91;94284.38;4220538;28;20417;-70
2024/03/03 04:25:14;;;;;;;66.30;34.92;;;;;;;7.02;81.25;94283.06;4223968;28;20058;-69
2024/03/03 04:27:17;;;;;;;61.28;33.45;;;;;;;7.16;80.55;94278.16;4225634;27;20645;-69
2024/03/03 04:29:18;;;;;;;59.42;33.53;;;;;;;7.23;79.85;94282.75;4242079;27;20079;-70
2024/03/03 04:31:20;;;;;;;60.03;34.17;;;;;;;7.29;79.39;94276.94;4244948;27;20519;-69
2024/03/03 04:33:23;;;;;;;67.68;34.78;;;;;;;7.37;78.94;94285.66;4239568;27;20043;-72
2024/03/03 04:35:25;;;;;;;64.53;33.53;;;;;;;7.44;78.43;94280.66;4239365;27;20062;-70
2024/03/03 04:37:26;;;;;;;65.68;34.67;;;;;;;7.48;78.21;94286.41;4243988;27;20052;-71
2024/03/03 04:39:28;;;;;;;63.42;35.92;;;;;;;7.54;78.02;94272.78;4238651;27;20054;-70
2024/03/03 04:41:31;;;;;;;68.28;34.80;;;;;;;7.56;77.62;94276.84;4239935;27;20047;-68
2024/03/03 04:43:33;;;;;;;72.80;35.47;;;;;;;7.59;77.30;94278.34;4234279;27;20513;-68
2024/03/03 04:45:35;;;;;;;68.40;34.13;;;;;;;7.55;77.56;94279.59;4239037;27;20145;-71
2024/03/03 04:47:36;;;;;;;63.40;35.45;;;;;;;7.42;77.57;94281.78;4208025;28;20091;-69
2024/03/03 04:49:41;;;;;;;80.22;38.53;;;;;;;7.31;78.18;94273.25;4223239;28;20124;-70
2024/03/03 04:51:43;;;;;;;66.57;34.75;;;;;;;7.30;78.76;94279.41;4229829;27;20051;-69
2024/03/03 04:53:45;;;;;;;75.43;37.00;;;;;;;7.39;78.51;94280.31;4217831;28;20134;-69
2024/03/03 04:55:47;;;;;;;69.40;38.20;;;;;;;7.43;78.43;94273.81;4243604;27;20137;-72
2024/03/03 04:57:49;;;;;;;75.45;37.20;;;;;;;7.46;78.30;94273.50;4217030;28;20415;-70
2024/03/03 04:59:51;;;;;;;69.22;37.88;;;;;;;7.50;78.07;94276.66;4239238;27;20055;-71
2024/03/03 05:01:53;;;;;;;85.53;41.17;;;;;;;7.45;77.88;94274.50;4243372;27;20451;-70
2024/03/03 05:03:56;;;;;;;77.05;37.35;;;;;;;7.48;78.18;94279.41;4224184;28;20356;-70
2024/03/03 05:05:58;;;;;;;88.73;40.10;;;;;;;7.50;77.74;94277.47;4222883;28;20039;-71
2024/03/03 05:08:00;;;;;;;81.25;39.88;;;;;;;7.54;78.26;94275.38;4230191;27;20275;-70
2024/03/03 05:10:02;;;;;;;83.80;41.13;;;;;;;7.56;77.56;94281.25;4237822;27;20043;-70
2024/03/03 05:12:05;;;;;;;89.03;41.25;;;;;;;7.64;77.39;94280.53;4235276;27;20047;-70
2024/03/03 05:14:07;;;;;;;87.63;41.97;;;;;;;7.66;77.10;94282.00;4233896;27;20059;-69
2024/03/03 05:16:09;;;;;;;97.35;42.80;;;;;;;7.43;77.62;94283.44;4206140;28;20330;-68
2024/03/03 05:18:11;;;;;;;88.80;43.20;;;;;;;7.21;78.17;94288.13;4239459;27;20139;-69
2024/03/03 05:20:13;;;;;;;90.15;42.33;;;;;;;7.23;78.75;94285.34;4234373;27;20035;-69
2024/03/03 05:22:15;;;;;;;89.25;43.70;;;;;;;7.26;79.12;94296.31;4239464;27;20066;-70
2024/03/03 05:24:17;;;;;;;96.78;43.60;;;;;;;7.29;78.83;94293.44;4241153;27;20467;-69
2024/03/03 05:26:20;;;;;;;97.88;43.25;;;;;;;7.31;78.82;94296.69;4242909;27;20047;-70
2024/03/03 05:28:23;;;;;;;94.27;42.97;;;;;;;7.36;78.47;94298.84;4242196;27;20047;-70
2024/03/03 05:30:26;;;;;;;92.57;43.03;;;;;;;7.36;78.63;94291.84;4240536;27;20456;-71
2024/03/03 05:32:27;;;;;;;103.70;42.25;;;;;;;7.39;78.93;94299.34;4240256;27;20088;-71
2024/03/03 05:34:29;;;;;;;95.43;45.30;;;;;;;7.41;78.63;94296.59;4218088;28;20048;-71
2024/03/03 05:36:33;;;;;;;103.68;46.30;;;;;;;7.44;78.42;94304.13;4215345;28;20127;-70
2024/03/03 05:38:35;;;;;;;;;;;;;;;7.48;77.79;94304.66;4241976;27;20047;-71
2024/03/03 05:40:37;;;;;;;94.53;45.00;;;;;;;7.52;78.09;94306.78;4227467;27;19929;-70
2024/03/03 05:42:39;;;;;;;100.32;45.90;;;;;;;7.58;77.92;94308.00;4240540;27;20062;-68
2024/03/03 05:44:41;;;;;;;95.43;44.50;;;;;;;7.65;77.79;94310.81;4242679;27;20626;-70
2024/03/03 05:46:43;;;;;;;100.68;44.22;;;;;;;7.70;77.46;94309.41;4243661;27;20232;-71
2024/03/03 05:48:44;;;;;;;93.13;46.58;;;;;;;7.74;77.77;94313.34;4236419;27;20096;-71
2024/03/03 05:50:46;;;;;;;98.90;45.50;;;;;;;7.76;77.25;94319.22;4237306;27;20455;-71
2024/03/03 05:52:48;;;;;;;94.13;45.50;;;;;;;7.79;76.66;94313.72;4241676;27;20047;-69
2024/03/03 05:54:50;;;;;;;96.20;46.38;;;;;;;7.83;77.18;94305.56;4236606;28;20055;-71
2024/03/03 05:56:52;;;;;;;93.60;44.70;;;;;;;7.86;77.25;94315.72;4242732;27;20115;-69
2024/03/03 05:58:54;;;;;;;101.63;46.47;;;;;;;7.76;77.10;94319.22;4225172;28;20054;-70
2024/03/03 06:00:56;;;;;;;99.30;46.92;;;;;;;7.58;77.00;94321.03;4242451;27;20467;-72
2024/03/03 06:02:58;;;;;;;92.75;43.70;;;;;;;7.43;77.49;94312.91;4243191;28;20470;-70
2024/03/03 06:05:00;;;;;;;93.70;45.05;;;;;;;7.48;78.48;94320.28;4242260;28;20170;-71
2024/03/03 06:07:05;;;;;;;95.32;46.08;;;;;;;7.53;78.30;94313.66;4246348;27;20142;-72
2024/03/03 06:09:08;;;;;;;92.38;45.80;;;;;;;7.60;77.64;94319.09;4229931;27;20063;-72
2024/03/03 06:11:10;;;;;;;101.55;47.50;;;;;;;7.65;77.53;94327.28;4247637;27;20047;-70
2024/03/03 06:13:12;;;;;;;91.05;44.30;;;;;;;7.74;77.55;94322.94;4244953;27;20059;-73
2024/03/03 06:15:14;;;;;;;94.60;47.03;;;;;;;7.73;77.23;94321.31;4247315;27;20077;-72
2024/03/03 06:17:16;;;;;;;94.07;46.10;;;;;;;7.74;76.96;94323.78;4224610;27;20047;-71
2024/03/03 06:19:18;;;;;;;90.25;46.42;;;;;;;7.77;77.28;94327.88;4235164;27;20243;-70
2024/03/03 06:21:20;;;;;;;111.28;47.85;;;;;;;7.77;76.82;94325.25;4248898;27;20047;-72
2024/03/03 06:23:21;;;;;;;100.05;46.28;;;;;;;7.77;76.99;94323.47;4248762;27;20492;-70
2024/03/03 06:25:23;;;;;;;98.88;47.10;;;;;;;7.68;77.12;94327.00;4220134;28;20056;-71
2024/03/03 06:27:25;;;;;;;103.63;47.95;;;;;;;7.69;77.60;94322.59;4248319;27;20125;-70
2024/03/03 06:29:27;;;;;;;98.10;47.00;;;;;;;7.64;77.57;94330.06;4225570;27;20048;-70
2024/03/03 06:31:29;;;;;;;97.32;46.30;;;;;;;7.53;77.72;94333.72;4243842;27;20053;-71
2024/03/03 06:33:30;;;;;;;119.22;48.13;;;;;;;7.39;77.85;94328.03;4242809;27;20108;-70
2024/03/03 06:35:32;;;;;;;95.95;48.13;;;;;;;7.08;78.87;94329.34;4243821;27;20047;-72
2024/03/03 06:37:34;;;;;;;102.80;46.90;;;;;;;7.00;79.73;94330.06;4247953;27;20061;-69
2024/03/03 06:39:36;;;;;;;107.22;51.00;;;;;;;6.99;79.99;94331.06;4221020;28;20143;-69
2024/03/03 06:41:38;;;;;;;107.75;51.00;;;;;;;7.06;80.21;94329.50;4243888;27;20051;-69
2024/03/03 06:43:41;;;;;;;105.43;49.42;;;;;;;7.06;80.07;94339.09;4212586;28;20521;-71
2024/03/03 06:45:43;;;;;;;106.07;51.10;;;;;;;7.12;80.19;94335.88;4242092;27;20055;-72
2024/03/03 06:47:45;;;;;;;108.18;53.53;;;;;;;7.17;80.56;94338.88;4229772;28;20418;-71
2024/03/03 06:49:47;;;;;;;99.28;51.30;;;;;;;7.29;80.00;94335.13;4246537;27;20043;-68
2024/03/03 06:51:49;;;;;;;107.57;51.20;;;;;;;7.19;79.24;94336.97;4245890;27;20044;-70
2024/03/03 06:53:52;;;;;;;104.25;49.35;;;;;;;7.01;79.47;94344.72;4227250;27;20078;-70
2024/03/03 06:55:54;;;;;;;103.18;48.60;;;;;;;6.98;80.35;94338.03;4248316;27;20117;-72
2024/03/03 06:57:56;;;;;;;108.65;50.10;;;;;;;6.79;80.00;94339.91;4235988;27;20500;-69
2024/03/03 06:59:58;;;;;;;104.45;50.88;;;;;;;6.63;80.59;94338.75;4243964;27;20047;-70
2024/03/03 07:02:00;;;;;;;99.32;50.08;;;;;;;6.76;81.65;94338.44;4230674;27;20049;-71
2024/03/03 07:06:10;;;;;;;93.45;50.60;;;;;;;7.20;81.67;94343.78;4235300;27;20128;-71
2024/03/03 07:08:11;;;;;;;105.72;50.00;;;;;;;7.34;80.83;94342.47;4247916;27;20051;-70
2024/03/03 07:10:14;;;;;;;100.80;51.13;;;;;;;7.44;79.89;94334.56;4246402;27;20059;-70
2024/03/03 07:12:16;;;;;;;101.97;50.67;;;;;;;7.37;79.04;94332.56;4247702;27;20146;-71
2024/03/03 07:14:18;;;;;;;99.68;50.65;;;;;;;7.50;79.27;94339.19;4220259;27;20054;-70
2024/03/03 07:16:20;;;;;;;105.18;51.50;;;;;;;7.62;78.72;94343.22;4247238;27;20158;-70
2024/03/03 07:18:23;;;;;;;95.63;50.75;;;;;;;7.76;77.69;94345.28;4240984;27;20120;-70
2024/03/03 07:20:24;;;;;;;103.55;51.88;;;;;;;7.84;77.50;94343.72;4230969;27;20134;-70
2024/03/03 07:22:26;;;;;;;97.43;50.08;;;;;;;7.90;76.88;94350.97;4226290;28;20070;-72
2024/03/03 07:24:28;;;;;;;101.18;51.88;;;;;;;7.90;76.66;94349.16;4239696;27;20700;-70
2024/03/03 07:26:31;;;;;;;88.03;48.65;;;;;;;7.96;77.10;94347.75;4240622;27;20069;-70
2024/03/03 07:28:33;;;;;;;100.95;50.08;;;;;;;7.84;76.32;94347.16;4242258;27;20046;-72
2024/03/03 07:30:34;;;;;;;99.35;50.83;;;;;;;7.84;76.69;94348.94;4243135;27;20073;-71
2024/03/03 07:32:38;;;;;;;93.50;48.00;;;;;;;7.83;77.37;94355.97;4237393;27;20115;-70
2024/03/03 07:34:43;;;;;;;93.15;48.33;;;;;;;7.80;77.09;94356.25;4237792;27;20066;-70
2024/03/03 07:36:46;;;;;;;91.70;48.78;;;;;;;7.84;77.28;94352.38;4234921;27;20100;-69
2024/03/03 07:38:48;;;;;;;96.93;47.65;;;;;;;7.93;76.97;94363.69;4244120;27;20557;-71
2024/03/03 07:40:49;;;;;;;94.50;48.70;;;;;;;7.99;77.06;94363.91;4227380;28;20052;-70
2024/03/03 07:42:51;;;;;;;95.85;47.47;;;;;;;8.04;76.09;94368.66;4241238;27;20126;-70
2024/03/03 07:44:53;;;;;;;90.78;46.85;;;;;;;8.09;76.75;94365.63;4241973;27;20108;-69
2024/03/03 07:46:55;;;;;;;85.22;46.03;;;;;;;8.15;76.41;94355.38;4236687;27;20054;-69
2024/03/03 07:48:57;;;;;;;102.65;48.20;;;;;;;8.05;75.80;94359.06;4232156;27;20470;-69
2024/03/03 07:51:02;;;;;;;87.07;45.50;;;;;;;7.86;75.88;94362.66;4211110;28;20467;-73
2024/03/03 07:53:04;;;;;;;84.72;44.60;;;;;;;7.66;77.18;94365.44;4240834;27;20639;-72
2024/03/03 07:55:06;;;;;;;84.53;45.50;;;;;;;7.50;77.75;94360.88;4218355;28;20043;-70
2024/03/03 07:57:08;;;;;;;92.40;46.05;;;;;;;7.30;78.54;94359.38;4243660;27;20047;-73
2024/03/03 07:59:10;;;;;;;91.35;47.58;;;;;;;7.34;79.68;94361.53;4236441;27;20054;-71
2024/03/03 08:01:12;;;;;;;89.45;47.53;;;;;;;7.39;79.38;94359.28;4225121;28;20062;-69
2024/03/03 08:03:14;;;;;;;89.47;47.08;;;;;;;7.55;79.11;94357.81;4239345;27;20158;-70
2024/03/03 08:05:16;;;;;;;88.78;47.50;;;;;;;7.73;79.37;94355.22;4245098;27;20054;-71
2024/03/03 08:07:18;;;;;;;87.93;44.53;;;;;;;7.66;77.50;94355.00;4239261;27;20040;-71
2024/03/03 08:09:20;;;;;;;88.10;47.47;;;;;;;7.48;78.47;94354.16;4226280;28;20134;-70
2024/03/03 08:11:23;;;;;;;82.45;45.78;;;;;;;7.48;78.60;94357.59;4222107;28;20552;-70
2024/03/03 08:13:24;;;;;;;89.93;48.13;;;;;;;7.55;78.88;94361.25;4235032;27;20062;-68
2024/03/03 08:15:27;;;;;;;90.63;46.00;;;;;;;7.60;78.79;94352.97;4235596;27;20166;-71
2024/03/03 08:17:29;;;;;;;84.65;46.08;;;;;;;7.66;78.36;94348.94;4241165;27;20063;-69
2024/03/03 08:19:30;;;;;;;82.57;45.42;;;;;;;7.80;79.01;94351.84;4235907;27;20059;-70
2024/03/03 08:21:32;;;;;;;85.53;44.50;;;;;;;7.95;78.11;94348.69;4244938;27;20047;-71
2024/03/03 08:23:34;;;;;;;82.70;44.35;;;;;;;8.10;78.00;94352.41;4234375;27;20048;-74
2024/03/03 08:25:36;;;;;;;72.50;42.08;;;;;;;8.29;77.23;94353.19;4240230;27;20057;-69
2024/03/03 08:27:39;;;;;;;75.43;41.05;;;;;;;8.43;76.23;94354.44;4239098;27;20120;-72
2024/03/03 08:29:40;;;;;;;76.30;43.42;;;;;;;8.59;75.96;94347.50;4220873;28;20549;-72
2024/03/03 08:31:44;;;;;;;73.75;41.83;;;;;;;8.62;74.41;94351.59;4243349;27;20054;-72
2024/03/03 08:33:46;;;;;;;70.78;41.70;;;;;;;8.46;74.83;94354.13;4239768;27;20040;-72
2024/03/03 08:35:48;;;;;;;69.93;39.50;;;;;;;8.26;74.94;94358.69;4244696;27;20461;-70
2024/03/03 08:37:52;;;;;;;66.70;38.15;;;;;;;7.94;76.29;94347.06;4242777;27;20074;-69
2024/03/03 08:39:54;;;;;;;76.25;41.63;;;;;;;7.97;76.78;94352.78;4241288;27;20142;-71
2024/03/03 08:41:56;;;;;;;71.65;41.90;;;;;;;8.03;76.91;94358.38;4220873;28;20188;-70
2024/03/03 08:43:58;;;;;;;72.03;41.13;;;;;;;8.00;76.48;94349.06;4240098;27;20053;-71
2024/03/03 08:45:59;;;;;;;71.05;40.63;;;;;;;8.24;77.19;94358.03;4241856;27;20085;-72
2024/03/03 08:48:01;;;;;;;72.70;40.65;;;;;;;8.36;76.21;94357.63;4224745;28;20356;-71
2024/03/03 08:50:04;;;;;;;72.32;40.17;;;;;;;8.35;75.30;94356.00;4242295;27;20073;-71
2024/03/03 08:52:07;;;;;;;67.60;39.67;;;;;;;8.51;75.73;94354.47;4242490;27;20074;-71
2024/03/03 08:54:09;;;;;;;73.18;40.33;;;;;;;8.66;75.16;94354.72;4225722;28;20047;-70
2024/03/03 08:56:11;;;;;;;70.75;39.90;;;;;;;8.83;75.12;94353.81;4224496;28;20452;-71
2024/03/03 08:58:13;;;;;;;66.43;37.75;;;;;;;8.90;73.59;94356.63;4221160;28;20123;-70
2024/03/03 09:00:15;;;;;;;64.82;37.42;;;;;;;8.87;73.19;94356.94;4227775;27;20051;-71
2024/03/03 09:02:17;;;;;;;65.32;38.72;;;;;;;8.89;73.27;94355.81;4231458;27;20457;-70
2024/03/03 09:04:19;;;;;;;70.68;38.15;;;;;;;8.94;73.17;94357.94;4240439;27;20055;-69
2024/03/03 09:06:21;;;;;;;66.68;39.78;;;;;;;9.00;73.59;94360.75;4241277;27;20059;-69
2024/03/03 09:08:22;;;;;;;67.38;38.08;;;;;;;9.13;72.94;94349.03;4243371;27;20047;-70
2024/03/03 09:10:25;;;;;;;57.75;36.58;;;;;;;9.32;72.83;94355.81;4242327;27;20446;-71
2024/03/03 09:12:27;;;;;;;65.00;36.40;;;;;;;9.35;70.88;94353.66;4234353;27;20100;-70
2024/03/03 09:14:29;;;;;;;55.55;34.80;;;;;;;9.31;71.92;94352.34;4237710;27;20051;-70
2024/03/03 09:16:31;;;;;;;66.43;33.78;;;;;;;9.33;71.30;94360.03;4238758;27;20047;-71
2024/03/03 09:18:33;;;;;;;50.40;32.55;;;;;;;9.31;71.11;94351.53;4240520;27;20047;-71
2024/03/03 09:20:35;;;;;;;52.53;33.17;;;;;;;9.39;71.44;94359.41;4243607;27;20046;-71
2024/03/03 09:22:37;;;;;;;50.28;31.92;;;;;;;9.52;71.42;94351.09;4242020;27;20047;-72
2024/03/03 09:24:43;;;;;;;49.20;32.08;;;;;;;9.62;71.17;94346.53;4241056;27;20076;-73
2024/03/03 09:26:48;;;;;;;52.08;33.22;;;;;;;9.72;70.56;94349.81;4233658;27;20452;-72
2024/03/03 09:28:50;;;;;;;52.47;33.28;;;;;;;9.78;70.21;94349.16;4206037;28;20044;-70